Nearby METAR Reports

 

KMQS - Coatesville, Pennsylvania, USA
Distance from station: ENE 6mi, 10km
Updated: Wed, 21-Feb-2018 11:35am EST
Clear
Clear
 Wind from varies
Wind: varies 6 mph , 9 km/h, Gust: 13 mph , 20 km/h
Temperature: 70°F , 21°C
Dew Point: -38°F , -39°C
Humidity: 1%
Barometer: 30.31 inHg , 1026.4 hPa
Clouds: Clear
Visibility: 10 miles , 16 km
2018/02/21 16:35 KMQS 211635Z AUTO VRB05G11KT 10SM CLR 21/M39 A3031 RMK AO2
KLNS - Lancaster, Pennsylvania, USA
Distance from station: NW 21mi, 33km
Updated: Wed, 21-Feb-2018 11:53am EST
Partly cloudy
Partly cloudy
 Wind from SSW
Wind: SSW 16 mph , 26 km/h
Temperature: 75°F , 24°C
Dew Point: 59°F , 15°C
Humidity: 57%
Barometer: 30.26 inHg , 1024.7 hPa
Clouds: Partly cloudy
Visibility: 10 miles , 16 km
Cloud details: Partly cloudy 8500 ft
2018/02/21 16:53 KLNS 211653Z 21014KT 10SM SCT085 24/15 A3026 RMK AO2 SLP247 T02390150
 
KILG - Wilmington, Delaware, USA
Distance from station: SE 28mi, 45km
Updated: Wed, 21-Feb-2018 11:51am EST
Few Clouds
Few Clouds
 Wind from SW
Wind: SW 14 mph , 22 km/h
Temperature: 73°F , 23°C
Dew Point: 63°F , 17°C
Humidity: 69%
Barometer: 30.30 inHg , 1026.1 hPa
Clouds: Few Clouds
Visibility: 10 miles , 16 km
Cloud details: Few Clouds 9000 ft
2018/02/21 16:51 KILG 211651Z 23012KT 10SM FEW090 23/17 A3030 RMK AO2 PK WND 24026/1554 SLP260 T02280167
KRDG - Reading, Pennsylvania, USA
Distance from station: N 29mi, 47km
Updated: Wed, 21-Feb-2018 11:54am EST
Partly cloudy
Partly cloudy
 Wind from WSW
Wind: WSW 12 mph , 19 km/h, Gust: 20 mph , 31 km/h
Temperature: 73°F , 23°C
Dew Point: 61°F , 16°C
Humidity: 65%
Barometer: 30.25 inHg , 1024.4 hPa
Clouds: Partly cloudy
Visibility: 10 miles , 16 km
Cloud details: Partly cloudy 9000 ft
2018/02/21 16:54 KRDG 211654Z 24010G17KT 10SM SCT090 23/16 A3025 RMK AO2 SLP247 T02330161
 
KPTW - Pottstown, Pennsylvania, USA
Distance from station: NE 30mi, 48km
Updated: Wed, 21-Feb-2018 11:54am EST
Few Clouds
Few Clouds
 Wind from WSW
Wind: WSW 12 mph , 19 km/h, Gust: 17 mph , 28 km/h
Temperature: 70°F , 21°C
Dew Point: 57°F , 14°C
Humidity: 64%
Barometer: 30.29 inHg , 1025.7 hPa
Clouds: Few Clouds
Visibility: 9 miles , 14 km
Cloud details: Few Clouds 8000 ft
2018/02/21 16:54 KPTW 211654Z AUTO 24010G15KT 9SM FEW080 21/14 A3029 RMK AO2 SLP253 T02110144